Time;durP1;ratioP1;P1;durP2;ratioP2;P2;SDS_P1;SDS_P2;PMS_P1;PMS_P2;Temp;Humidity;BMP_temperature;BMP_pressure;BME280_temperature;BME280_humidity;BME280_pressure;Samples;Min_cycle;Max_cycle;Signal;HPM_P1;HPM_P2
2022/03/22 00:00:56;;;;;;;1999.90;999.90;;;14.10;54.10;;;;;;4973685;28;20050;-83
2022/03/22 00:03:24;;;;;;;1999.90;999.90;;;14.10;54.10;;;;;;4992222;28;20034;-83
2022/03/22 00:05:54;;;;;;;1999.90;999.90;;;14.00;54.00;;;;;;5008855;28;20026;-83
2022/03/22 00:08:21;;;;;;;1999.90;999.90;;;14.00;54.00;;;;;;4991192;28;20038;-82
2022/03/22 00:10:47;;;;;;;1999.90;999.90;;;14.00;54.00;;;;;;4959908;28;20031;-83
2022/03/22 00:13:13;;;;;;;1999.90;999.90;;;14.00;54.10;;;;;;4990561;28;20046;-82
2022/03/22 00:15:39;;;;;;;1999.90;999.90;;;14.00;54.60;;;;;;4991892;28;20042;-83
2022/03/22 00:18:06;;;;;;;1999.90;999.90;;;13.90;54.00;;;;;;4975419;28;20046;-82
2022/03/22 00:20:32;;;;;;;1999.90;999.90;;;13.90;54.00;;;;;;5008308;28;20034;-82
2022/03/22 00:22:59;;;;;;;1999.90;999.90;;;13.90;54.00;;;;;;4991277;28;20034;-82
2022/03/22 00:25:25;;;;;;;1999.90;999.90;;;13.90;54.00;;;;;;4959502;28;20042;-82
2022/03/22 00:27:54;;;;;;;1999.90;999.90;;;13.90;54.00;;;;;;4958052;28;20053;-83
2022/03/22 00:30:22;;;;;;;1999.90;999.90;;;13.90;54.00;;;;;;4990879;28;20042;-82
2022/03/22 00:32:52;;;;;;;1999.90;999.90;;;13.90;54.00;;;;;;5008222;28;20034;-83
2022/03/22 00:35:18;;;;;;;1999.90;999.90;;;13.90;54.00;;;;;;4957763;28;20054;-83
2022/03/22 00:37:46;;;;;;;1999.90;999.90;;;13.80;54.00;;;;;;4959757;28;20038;-82
2022/03/22 00:40:17;;;;;;;1999.90;999.90;;;13.80;54.00;;;;;;4974736;28;20046;-83
2022/03/22 00:42:46;;;;;;;1999.90;999.90;;;13.80;54.00;;;;;;4990683;28;20030;-83
2022/03/22 00:45:18;;;;;;;1999.90;999.90;;;13.80;54.00;;;;;;4989201;28;20490;-83
2022/03/22 00:47:49;;;;;;;1999.90;999.90;;;13.80;54.00;;;;;;4990713;28;20030;-82
2022/03/22 00:50:16;;;;;;;1999.90;999.90;;;13.70;54.00;;;;;;4990168;28;20026;-83
2022/03/22 00:52:42;;;;;;;1999.90;999.90;;;13.70;54.00;;;;;;4974366;28;20364;-82
2022/03/22 00:55:10;;;;;;;1999.90;999.90;;;13.70;54.00;;;;;;4990319;28;20030;-83
2022/03/22 00:57:36;;;;;;;1999.90;999.90;;;13.60;54.00;;;;;;4991481;28;20033;-83
2022/03/22 01:00:07;;;;;;;1999.90;999.90;;;13.60;54.00;;;;;;4988634;28;20053;-82
2022/03/22 01:02:37;;;;;;;1999.90;999.90;;;13.60;54.00;;;;;;4990029;28;20399;-82
2022/03/22 01:05:06;;;;;;;1999.90;999.90;;;13.60;54.00;;;;;;4974035;28;20038;-82
2022/03/22 01:07:33;;;;;;;1999.90;999.90;;;13.60;54.00;;;;;;4989656;28;20034;-82
2022/03/22 01:10:01;;;;;;;1999.90;999.90;;;13.60;54.00;;;;;;4989922;28;20030;-82
2022/03/22 01:12:27;;;;;;;1999.90;999.90;;;13.60;54.10;;;;;;4974572;28;20384;-82
2022/03/22 01:14:53;;;;;;;1999.90;999.90;;;13.60;54.00;;;;;;5007536;28;20065;-82
2022/03/22 01:17:19;;;;;;;1999.90;999.90;;;13.50;54.00;;;;;;4988660;28;20034;-82
2022/03/22 01:19:46;;;;;;;1999.90;999.90;;;13.50;54.00;;;;;;4990235;28;20034;-82
2022/03/22 01:22:16;;;;;;;1999.90;999.90;;;13.50;54.80;;;;;;4956672;28;20046;-82
2022/03/22 01:24:43;;;;;;;1999.90;999.90;;;13.40;54.10;;;;;;4987682;28;20495;-83
2022/03/22 01:27:10;;;;;;;1999.90;999.90;;;13.40;54.20;;;;;;4989831;28;20587;-82
2022/03/22 01:29:37;;;;;;;1999.90;999.90;;;13.30;54.20;;;;;;4974066;28;20039;-83
2022/03/22 01:32:05;;;;;;;1999.90;999.90;;;13.30;54.20;;;;;;4990274;28;20041;-84
2022/03/22 01:34:31;;;;;;;1999.90;999.90;;;13.30;54.30;;;;;;4989369;28;20027;-83
2022/03/22 01:36:57;;;;;;;1999.90;999.90;;;13.20;54.30;;;;;;4990562;28;20025;-84
2022/03/22 01:39:23;;;;;;;1999.90;999.90;;;13.10;54.30;;;;;;4989521;28;20035;-85
2022/03/22 01:41:49;;;;;;;1999.90;999.90;;;13.10;54.40;;;;;;4990993;28;20033;-84
2022/03/22 01:44:15;;;;;;;1999.90;999.90;;;13.00;54.60;;;;;;4990384;28;20026;-84
2022/03/22 01:46:41;;;;;;;1999.90;999.90;;;12.90;54.40;;;;;;4990143;28;20034;-83
2022/03/22 01:49:08;;;;;;;1999.90;999.90;;;12.90;54.50;;;;;;4989174;28;20038;-82
2022/03/22 01:51:34;;;;;;;1999.90;999.90;;;12.80;54.40;;;;;;4989989;28;20023;-81
2022/03/22 01:54:00;;;;;;;1999.90;999.90;;;12.80;54.50;;;;;;4989082;28;20459;-82
2022/03/22 01:56:26;;;;;;;1999.90;999.90;;;12.80;54.50;;;;;;4988592;28;20037;-82
2022/03/22 01:58:55;;;;;;;1999.90;999.90;;;12.70;54.50;;;;;;4988197;28;20118;-83
2022/03/22 02:06:53;;;;;;;1999.90;999.90;;;12.70;54.50;;;;;;4991368;28;20030;-82
2022/03/22 02:09:19;;;;;;;1999.90;999.90;;;12.60;54.60;;;;;;4971967;28;20031;-82
2022/03/22 02:11:45;;;;;;;1999.90;999.90;;;12.60;54.60;;;;;;5007005;28;20403;-81
2022/03/22 02:14:11;;;;;;;1999.90;999.90;;;12.60;54.60;;;;;;4989982;28;20043;-81
2022/03/22 02:16:37;;;;;;;1999.90;999.90;;;12.50;54.60;;;;;;4988284;28;20030;-82
2022/03/22 02:19:03;;;;;;;1999.90;999.90;;;12.50;54.70;;;;;;4987674;28;20053;-82
2022/03/22 02:21:31;;;;;;;1999.90;999.90;;;12.50;54.70;;;;;;4973261;28;20034;-81
2022/03/22 02:23:57;;;;;;;1999.90;999.90;;;12.40;54.70;;;;;;4990491;28;20058;-81
2022/03/22 02:26:24;;;;;;;1999.90;999.90;;;12.40;54.70;;;;;;5005594;28;20035;-81
2022/03/22 02:28:54;;;;;;;1999.90;999.90;;;12.30;54.80;;;;;;4987569;28;20018;-82
2022/03/22 02:31:24;;;;;;;1999.90;999.90;;;12.30;54.80;;;;;;4956077;28;20034;-81
2022/03/22 02:33:50;;;;;;;1999.90;999.90;;;12.30;54.90;;;;;;4987393;28;20033;-82
2022/03/22 02:36:16;;;;;;;1999.90;999.90;;;12.20;54.90;;;;;;4990605;28;20033;-82
2022/03/22 02:38:43;;;;;;;1999.90;999.90;;;12.20;54.90;;;;;;5007286;28;20040;-83
2022/03/22 02:41:17;;;;;;;1999.90;999.90;;;12.20;55.00;;;;;;5004418;28;20379;-82
2022/03/22 02:43:44;;;;;;;1999.90;999.90;;;12.10;54.90;;;;;;4972345;28;20059;-82
2022/03/22 02:46:10;;;;;;;1999.90;999.90;;;12.10;55.00;;;;;;4968503;28;20038;-82
2022/03/22 02:48:37;;;;;;;1999.90;999.90;;;12.00;55.00;;;;;;4988467;28;20033;-82
2022/03/22 02:51:03;;;;;;;1999.90;999.90;;;12.00;55.00;;;;;;4991064;28;20037;-82
2022/03/22 02:53:29;;;;;;;1999.90;999.90;;;12.00;55.10;;;;;;4988694;28;20038;-81
2022/03/22 02:55:55;;;;;;;1999.90;999.90;;;11.90;55.00;;;;;;4989315;28;20030;-83
2022/03/22 02:58:21;;;;;;;1999.90;999.90;;;11.90;55.00;;;;;;4988616;28;20030;-83
2022/03/22 03:00:47;;;;;;;1999.90;999.90;;;11.80;55.20;;;;;;4971819;28;20034;-80
2022/03/22 03:03:14;;;;;;;1999.90;999.90;;;11.80;55.10;;;;;;4988399;28;20022;-81
2022/03/22 03:05:40;;;;;;;1999.90;999.90;;;11.80;55.10;;;;;;5004844;28;20031;-81
2022/03/22 03:08:07;;;;;;;1999.90;999.90;;;11.80;55.10;;;;;;5000825;28;20518;-82
2022/03/22 03:10:33;;;;;;;1999.90;999.90;;;11.70;55.00;;;;;;4989302;28;20490;-82
2022/03/22 03:13:03;;;;;;;1999.90;999.90;;;11.70;55.10;;;;;;4990506;28;20224;-81
2022/03/22 03:15:30;;;;;;;1999.90;999.90;;;11.60;55.10;;;;;;4974762;28;20042;-81
2022/03/22 03:17:56;;;;;;;1999.90;999.90;;;11.60;55.10;;;;;;4987988;28;20034;-82
2022/03/22 03:20:23;;;;;;;1999.90;999.90;;;11.60;55.20;;;;;;4988939;28;20042;-82
2022/03/22 03:22:49;;;;;;;1999.90;999.90;;;11.50;55.10;;;;;;4985312;28;20035;-83
2022/03/22 03:25:15;;;;;;;1999.90;999.90;;;11.50;55.80;;;;;;4986450;28;20069;-82
2022/03/22 03:27:41;;;;;;;1999.90;999.90;;;11.40;55.10;;;;;;4988880;28;20387;-83
2022/03/22 03:30:07;;;;;;;1999.90;999.90;;;11.40;55.10;;;;;;4991113;28;20027;-82
2022/03/22 03:32:33;;;;;;;1999.90;999.90;;;11.40;55.10;;;;;;4993751;28;20439;-83
2022/03/22 03:35:00;;;;;;;1999.90;999.90;;;11.40;55.00;;;;;;4969798;28;20034;-82
2022/03/22 03:37:29;;;;;;;1999.90;999.90;;;11.40;55.00;;;;;;5002873;28;20033;-82
2022/03/22 03:39:55;;;;;;;1999.90;999.90;;;11.40;55.00;;;;;;4975230;28;20053;-82
2022/03/22 03:42:21;;;;;;;1999.90;999.90;;;11.40;55.00;;;;;;4975996;28;20038;-82
2022/03/22 03:47:34;;;;;;;1999.90;999.90;;;11.30;55.00;;;;;;4990684;28;20042;-82
2022/03/22 03:50:05;;;;;;;1999.90;999.90;;;11.30;54.80;;;;;;4989621;28;20072;-82
2022/03/22 03:52:33;;;;;;;1999.90;999.90;;;11.30;54.80;;;;;;4990213;28;20041;-83
2022/03/22 03:55:00;;;;;;;1999.90;999.90;;;11.30;54.80;;;;;;4991123;28;20018;-81
2022/03/22 03:57:26;;;;;;;1999.90;999.90;;;11.30;54.90;;;;;;4973078;28;20043;-81
2022/03/22 03:59:53;;;;;;;1999.90;999.90;;;11.30;54.90;;;;;;4993891;28;20050;-81
2022/03/22 04:02:19;;;;;;;1999.90;999.90;;;11.30;54.90;;;;;;4991280;28;20526;-81
2022/03/22 04:04:51;;;;;;;1999.90;999.90;;;11.30;54.90;;;;;;4990180;28;20528;-82
2022/03/22 04:07:19;;;;;;;1999.90;999.90;;;11.30;54.90;;;;;;4992319;28;20038;-81
2022/03/22 04:09:45;;;;;;;1999.90;999.90;;;11.20;54.90;;;;;;4990704;28;20038;-81
2022/03/22 04:12:12;;;;;;;1999.90;999.90;;;11.20;55.00;;;;;;4991501;28;20045;-82
2022/03/22 04:14:38;;;;;;;1999.90;999.90;;;11.20;55.00;;;;;;4991595;28;20049;-82
2022/03/22 04:17:07;;;;;;;1999.90;999.90;;;11.10;55.50;;;;;;4990047;28;20046;-81
2022/03/22 04:19:36;;;;;;;1999.90;999.90;;;11.10;55.00;;;;;;4990668;28;20039;-81
2022/03/22 04:22:03;;;;;;;1999.90;999.90;;;11.10;55.00;;;;;;4990942;28;20053;-82
2022/03/22 04:24:29;;;;;;;1999.90;999.90;;;11.00;55.00;;;;;;4991512;28;20384;-82
2022/03/22 04:32:41;;;;;;;1999.90;999.90;;;11.00;55.00;;;;;;4976556;28;20510;-81
2022/03/22 04:32:44;;;;;;;1999.90;999.90;;;10.90;55.10;;;;;;4990260;28;20031;-82
2022/03/22 04:35:17;;;;;;;1999.90;999.90;;;10.80;55.10;;;;;;4987586;28;20053;-82
2022/03/22 04:37:44;;;;;;;1999.90;999.90;;;10.70;55.10;;;;;;4989829;28;20042;-82
2022/03/22 04:40:10;;;;;;;1999.90;999.90;;;10.70;55.20;;;;;;4990254;28;20038;-83
2022/03/22 04:42:37;;;;;;;1999.90;999.90;;;10.70;55.20;;;;;;4989163;28;20471;-82
2022/03/22 04:45:04;;;;;;;1999.90;999.90;;;10.70;55.20;;;;;;4959163;28;20050;-80
2022/03/22 04:47:30;;;;;;;1999.90;999.90;;;10.70;55.30;;;;;;5006620;28;20038;-81
2022/03/22 04:49:56;;;;;;;1999.90;999.90;;;10.70;55.20;;;;;;4990360;28;20088;-82
2022/03/22 04:57:52;;;;;;;1999.90;999.90;;;10.70;55.20;;;;;;4993411;28;20026;-82
2022/03/22 05:00:19;;;;;;;1999.90;999.90;;;10.60;55.20;;;;;;4988673;28;20046;-85
2022/03/22 05:02:47;;;;;;;1999.90;999.90;;;10.60;55.30;;;;;;5008159;28;20134;-83
2022/03/22 05:05:15;;;;;;;1999.90;999.90;;;10.50;55.30;;;;;;5006211;28;20041;-83
2022/03/22 05:07:41;;;;;;;1999.90;999.90;;;10.40;55.40;;;;;;4989150;28;20030;-83
2022/03/22 05:10:08;;;;;;;1999.90;999.90;;;10.40;55.50;;;;;;4991185;28;20045;-82
2022/03/22 05:12:37;;;;;;;1999.90;999.90;;;10.30;55.50;;;;;;4956233;28;20046;-83
2022/03/22 05:15:04;;;;;;;1999.90;999.90;;;10.20;55.60;;;;;;4991907;28;20468;-81
2022/03/22 05:17:30;;;;;;;1999.90;999.90;;;10.10;55.60;;;;;;5006360;28;20042;-82
2022/03/22 05:19:56;;;;;;;1999.90;999.90;;;10.10;55.70;;;;;;4990103;28;20057;-83
2022/03/22 05:22:22;;;;;;;1999.90;999.90;;;10.00;55.80;;;;;;4990852;28;20030;-83
2022/03/22 05:24:48;;;;;;;1999.90;999.90;;;10.00;55.80;;;;;;4990316;28;20415;-83
2022/03/22 05:27:15;;;;;;;1999.90;999.90;;;10.00;55.80;;;;;;4990900;28;20034;-82
2022/03/22 05:29:42;;;;;;;1999.90;999.90;;;10.00;55.90;;;;;;4991925;28;20030;-82
2022/03/22 05:32:08;;;;;;;1999.90;999.90;;;9.90;55.80;;;;;;4986594;28;20038;-83
2022/03/22 05:34:35;;;;;;;1999.90;999.90;;;10.00;56.50;;;;;;4986529;28;20399;-82
2022/03/22 05:37:01;;;;;;;1999.90;999.90;;;10.00;55.90;;;;;;4989371;28;20030;-82
2022/03/22 05:39:27;;;;;;;1999.90;999.90;;;9.90;55.90;;;;;;4990827;28;20395;-81
2022/03/22 05:41:53;;;;;;;1999.90;999.90;;;10.00;55.90;;;;;;4990325;28;20053;-81
2022/03/22 05:44:20;;;;;;;1999.90;999.90;;;9.90;55.80;;;;;;4987882;28;20038;-81
2022/03/22 05:46:46;;;;;;;1999.90;999.90;;;10.00;55.80;;;;;;4990316;28;20042;-81
2022/03/22 05:49:13;;;;;;;1999.90;999.90;;;10.00;55.80;;;;;;4986786;28;20046;-81
2022/03/22 05:51:40;;;;;;;1999.90;999.90;;;10.00;55.80;;;;;;4988077;28;20049;-85
2022/03/22 05:54:06;;;;;;;1999.90;999.90;;;10.00;55.80;;;;;;4973766;28;20038;-83
2022/03/22 05:56:32;;;;;;;1999.90;999.90;;;10.00;55.90;;;;;;5006532;28;20475;-84
2022/03/22 05:58:59;;;;;;;1999.90;999.90;;;9.90;55.80;;;;;;4989523;28;20037;-83
2022/03/22 06:01:26;;;;;;;1999.90;999.90;;;9.90;55.90;;;;;;4989691;28;20287;-81
2022/03/22 06:03:52;;;;;;;1999.90;999.90;;;9.90;56.00;;;;;;4990104;28;20042;-82
2022/03/22 06:06:18;;;;;;;1999.90;999.90;;;9.90;55.90;;;;;;4990008;28;20042;-82
2022/03/22 06:08:45;;;;;;;1999.90;999.90;;;9.90;55.90;;;;;;4990919;28;20038;-82
2022/03/22 06:11:11;;;;;;;1999.90;999.90;;;9.90;55.90;;;;;;4973768;28;20026;-80
2022/03/22 06:13:38;;;;;;;1999.90;999.90;;;9.90;55.90;;;;;;4988986;28;20038;-80
2022/03/22 06:16:05;;;;;;;1999.90;999.90;;;9.80;55.90;;;;;;4988517;28;20046;-80
2022/03/22 06:18:31;;;;;;;1999.90;999.90;;;9.80;55.90;;;;;;4989000;28;20383;-81
2022/03/22 06:20:57;;;;;;;1999.90;999.90;;;9.80;56.00;;;;;;4991974;28;20043;-83
2022/03/22 06:23:23;;;;;;;1999.90;999.90;;;9.80;56.10;;;;;;4989255;28;20460;-82
2022/03/22 06:25:51;;;;;;;1999.90;999.90;;;9.80;56.50;;;;;;4990068;28;20049;-81
2022/03/22 06:28:18;;;;;;;1999.90;999.90;;;9.90;55.90;;;;;;4987785;28;20053;-80
2022/03/22 06:30:44;;;;;;;1999.90;999.90;;;9.90;55.90;;;;;;4989834;28;20045;-82
2022/03/22 06:33:16;;;;;;;1999.90;999.90;;;9.90;55.80;;;;;;4988954;28;20030;-83
2022/03/22 06:35:43;;;;;;;1999.90;999.90;;;9.90;55.70;;;;;;5005085;28;20026;-84
2022/03/22 06:38:09;;;;;;;1999.90;999.90;;;10.00;55.70;;;;;;4993621;28;20034;-82
2022/03/22 06:40:38;;;;;;;1999.90;999.90;;;10.00;55.70;;;;;;4976588;28;20065;-83
2022/03/22 06:43:05;;;;;;;1999.90;999.90;;;10.10;55.70;;;;;;4994363;28;20052;-88
2022/03/22 06:45:32;;;;;;;1999.90;999.90;;;10.10;55.50;;;;;;4993467;28;20042;-82
2022/03/22 06:47:58;;;;;;;1999.90;999.90;;;10.20;55.40;;;;;;4976266;28;20046;-83
2022/03/22 06:50:24;;;;;;;1999.90;999.90;;;10.40;55.30;;;;;;4973990;28;20049;-86
2022/03/22 06:52:51;;;;;;;1999.90;999.90;;;10.50;55.10;;;;;;5004579;28;20497;-88
2022/03/22 06:55:22;;;;;;;1999.90;999.90;;;10.70;54.90;;;;;;4991867;28;20478;-86
2022/03/22 06:57:50;;;;;;;1999.90;999.90;;;10.90;54.70;;;;;;4992260;28;20051;-87
2022/03/22 07:00:20;;;;;;;1999.90;999.90;;;11.00;54.40;;;;;;4992619;28;20403;-87
2022/03/22 07:02:47;;;;;;;1999.90;999.90;;;11.20;54.30;;;;;;4994995;28;20387;-82
2022/03/22 07:05:13;;;;;;;1999.90;999.90;;;11.20;54.10;;;;;;4992442;28;20030;-86
2022/03/22 07:07:40;;;;;;;1999.90;999.90;;;11.40;54.10;;;;;;5006816;28;20031;-87
2022/03/22 07:10:08;;;;;;;1999.90;999.90;;;11.50;53.90;;;;;;4983053;28;20045;-86
2022/03/22 07:12:34;;;;;;;1999.90;999.90;;;11.60;53.70;;;;;;4991849;28;20483;-83
2022/03/22 07:15:04;;;;;;;1999.90;999.90;;;11.70;53.60;;;;;;4993721;28;20030;-83
2022/03/22 07:17:30;;;;;;;1999.90;999.90;;;11.80;53.60;;;;;;4993715;28;22582;-83
2022/03/22 07:19:56;;;;;;;1999.90;999.90;;;11.90;53.30;;;;;;4988062;28;20399;-85
2022/03/22 07:22:23;;;;;;;1999.90;999.90;;;12.00;53.20;;;;;;4992515;28;20391;-82
2022/03/22 07:24:50;;;;;;;1999.90;999.90;;;12.10;53.00;;;;;;4991211;28;20061;-82
2022/03/22 07:27:16;;;;;;;1999.90;999.90;;;12.20;53.00;;;;;;4992037;28;20483;-83
2022/03/22 07:29:42;;;;;;;1999.90;999.90;;;12.30;52.70;;;;;;4992300;28;20035;-82
2022/03/22 07:32:08;;;;;;;1999.90;999.90;;;12.40;52.70;;;;;;4990952;28;20408;-80
2022/03/22 07:34:34;;;;;;;1999.90;999.90;;;12.60;52.60;;;;;;4991144;28;20468;-82
2022/03/22 07:37:00;;;;;;;1999.90;999.90;;;12.70;52.40;;;;;;4991436;28;20041;-82
2022/03/22 07:39:29;;;;;;;1999.90;999.90;;;12.80;52.30;;;;;;4975327;28;20026;-82
2022/03/22 07:41:55;;;;;;;1999.90;999.90;;;12.80;52.10;;;;;;4989743;28;20079;-84
2022/03/22 07:44:21;;;;;;;1999.90;999.90;;;12.90;52.10;;;;;;5007563;28;20130;-82
2022/03/22 07:46:47;;;;;;;1999.90;999.90;;;13.10;52.10;;;;;;4988426;28;20049;-84
2022/03/22 07:54:43;;;;;;;1999.90;999.90;;;13.80;51.90;;;;;;4991612;28;20479;-84
2022/03/22 07:57:09;;;;;;;1999.90;999.90;;;14.10;51.80;;;;;;4992328;28;20041;-83
2022/03/22 07:59:35;;;;;;;1999.90;999.90;;;14.30;51.70;;;;;;5006042;28;20047;-81
2022/03/22 08:02:02;;;;;;;1999.90;999.90;;;14.40;51.70;;;;;;4970761;28;20039;-83
2022/03/22 08:04:28;;;;;;;1999.90;999.90;;;14.60;51.60;;;;;;4989381;28;20031;-83
2022/03/22 08:06:54;;;;;;;1999.90;999.90;;;14.60;51.50;;;;;;4988372;28;20046;-87
2022/03/22 08:09:20;;;;;;;1999.90;999.90;;;14.70;51.50;;;;;;4990881;28;20387;-86
2022/03/22 08:11:47;;;;;;;1999.90;999.90;;;14.80;51.50;;;;;;5005890;28;20041;-89
2022/03/22 08:14:13;;;;;;;1999.90;999.90;;;14.90;51.20;;;;;;4988439;28;20084;-88
2022/03/22 08:16:40;;;;;;;1999.90;999.90;;;14.90;51.10;;;;;;4988773;28;20035;-88
2022/03/22 08:19:07;;;;;;;1999.90;999.90;;;15.00;50.90;;;;;;4987092;28;20383;-87
2022/03/22 08:21:36;;;;;;;1999.90;999.90;;;15.10;50.80;;;;;;4987425;28;20049;-87
2022/03/22 08:24:02;;;;;;;1999.90;999.90;;;15.20;50.60;;;;;;4989605;28;20030;-88
2022/03/22 08:26:28;;;;;;;1999.90;999.90;;;15.40;50.50;;;;;;4989177;28;20037;-87
2022/03/22 08:28:55;;;;;;;1999.90;999.90;;;15.60;50.30;;;;;;4990761;28;20026;-87
2022/03/22 08:31:21;;;;;;;1999.90;999.90;;;15.70;49.80;;;;;;4987957;28;20053;-86
2022/03/22 08:33:47;;;;;;;1999.90;999.90;;;15.80;49.40;;;;;;4989646;28;20030;-82
2022/03/22 08:36:13;;;;;;;1999.90;999.90;;;15.90;49.10;;;;;;4989876;28;20034;-88
2022/03/22 08:38:39;;;;;;;1999.90;999.90;;;15.90;48.90;;;;;;4991407;28;20034;-87
2022/03/22 08:41:06;;;;;;;1999.90;999.90;;;16.00;48.80;;;;;;4989372;28;20049;-87
2022/03/22 08:43:32;;;;;;;1999.90;999.90;;;16.20;48.60;;;;;;4990960;28;20029;-87
2022/03/22 08:45:58;;;;;;;1999.90;999.90;;;16.20;47.70;;;;;;4991058;28;20040;-88
2022/03/22 08:48:25;;;;;;;1999.90;999.90;;;16.00;47.30;;;;;;4973647;28;20031;-88
2022/03/22 08:50:51;;;;;;;1999.90;999.90;;;16.00;47.50;;;;;;4990690;28;20033;-88
2022/03/22 08:53:19;;;;;;;1999.90;999.90;;;16.10;47.50;;;;;;4989747;28;20042;-88
2022/03/22 08:55:46;;;;;;;1999.90;999.90;;;16.10;46.80;;;;;;4991365;28;20026;-88
2022/03/22 08:58:12;;;;;;;1999.90;999.90;;;16.10;46.50;;;;;;4970443;28;20042;-88
2022/03/22 09:00:38;;;;;;;1999.90;999.90;;;16.10;46.40;;;;;;4970837;28;20050;-88
2022/03/22 09:03:05;;;;;;;1999.90;999.90;;;16.00;46.20;;;;;;5000076;28;20038;-87
2022/03/22 09:08:16;;;;;;;1999.90;999.90;;;16.00;45.90;;;;;;4989290;28;20042;-87
2022/03/22 09:10:43;;;;;;;1999.90;999.90;;;15.90;45.60;;;;;;4988999;28;20041;-90
2022/03/22 09:13:09;;;;;;;1999.90;999.90;;;16.00;45.50;;;;;;5004568;28;20042;-84
2022/03/22 09:15:37;;;;;;;1999.90;999.90;;;16.00;45.30;;;;;;4977448;28;20035;-88
2022/03/22 09:18:04;;;;;;;1999.90;999.90;;;16.00;45.00;;;;;;5003409;28;20034;-87
2022/03/22 09:20:32;;;;;;;1999.90;999.90;;;16.00;45.00;;;;;;4996186;28;20045;-79
2022/03/22 09:22:59;;;;;;;1999.90;999.90;;;16.10;45.00;;;;;;4983506;28;20041;-89
2022/03/22 09:25:27;;;;;;;1999.90;999.90;;;16.20;44.90;;;;;;4979344;28;20105;-88
2022/03/22 09:27:54;;;;;;;1999.90;999.90;;;16.40;44.90;;;;;;4982091;28;20038;-90
2022/03/22 09:30:21;;;;;;;1999.90;999.90;;;16.70;44.70;;;;;;4983487;28;20100;-89
2022/03/22 09:32:48;;;;;;;1999.90;999.90;;;16.80;44.10;;;;;;4967647;28;20050;-88
2022/03/22 09:35:17;;;;;;;1999.90;999.90;;;16.80;43.70;;;;;;4981582;28;20045;-87
2022/03/22 09:37:43;;;;;;;1999.90;999.90;;;16.70;43.90;;;;;;4999606;28;20035;-80
2022/03/22 09:40:10;;;;;;;1999.90;999.90;;;16.70;44.00;;;;;;4972911;28;20038;-80
2022/03/22 09:42:42;;;;;;;1999.90;999.90;;;16.70;43.70;;;;;;4986459;28;20050;-80
2022/03/22 09:45:09;;;;;;;1999.90;999.90;;;16.70;43.50;;;;;;4991045;28;20478;-80
2022/03/22 09:47:38;;;;;;;1999.90;999.90;;;16.80;43.70;;;;;;4972929;28;20049;-87
2022/03/22 09:50:06;;;;;;;1999.90;999.90;;;16.90;43.80;;;;;;4989373;28;20045;-87
2022/03/22 09:52:33;;;;;;;1999.90;999.90;;;17.00;43.60;;;;;;4972070;28;20034;-87
2022/03/22 09:54:59;;;;;;;1999.90;999.90;;;17.00;43.50;;;;;;4990014;28;20034;-87
2022/03/22 09:57:25;;;;;;;1999.90;999.90;;;17.10;43.40;;;;;;4990542;28;20693;-86
2022/03/22 09:59:51;;;;;;;1999.90;999.90;;;17.10;43.20;;;;;;5005764;28;20038;-86
2022/03/22 10:02:32;;;;;;;1999.90;999.90;;;17.10;43.30;;;;;;4966433;28;20042;-87
2022/03/22 10:04:58;;;;;;;1999.90;999.90;;;16.90;43.30;;;;;;4965222;28;20407;-86
2022/03/22 10:07:25;;;;;;;1999.90;999.90;;;17.00;43.60;;;;;;4984384;28;20039;-88
2022/03/22 10:09:52;;;;;;;1999.90;999.90;;;17.30;43.60;;;;;;4952873;28;20023;-88
2022/03/22 10:12:26;;;;;;;1999.90;999.90;;;17.50;43.40;;;;;;4969715;28;20061;-77
2022/03/22 10:14:52;;;;;;;1999.90;999.90;;;17.60;43.20;;;;;;4969102;28;20038;-77
2022/03/22 10:17:18;;;;;;;1999.90;999.90;;;17.70;43.10;;;;;;4983384;28;20045;-77
2022/03/22 10:19:51;;;;;;;1999.90;999.90;;;17.80;43.10;;;;;;4988201;28;20045;-76
2022/03/22 10:22:24;;;;;;;1999.90;999.90;;;18.00;43.00;;;;;;4991582;28;20070;-91
2022/03/22 10:24:53;;;;;;;1999.90;999.90;;;18.10;43.00;;;;;;5007397;28;20075;-84
2022/03/22 10:27:37;;;;;;;1999.90;999.90;;;18.30;43.00;;;;;;4990827;28;20050;-83
2022/03/22 10:30:08;;;;;;;1999.90;999.90;;;18.30;42.70;;;;;;5006256;28;20391;-83
2022/03/22 10:32:43;;;;;;;1999.90;999.90;;;18.40;42.90;;;;;;4993808;28;20372;-85
2022/03/22 10:35:13;;;;;;;1999.90;999.90;;;18.50;42.90;;;;;;4992088;28;20043;-84
2022/03/22 10:37:44;;;;;;;1999.90;999.90;;;18.60;42.70;;;;;;4975210;28;20026;-85
2022/03/22 10:40:23;;;;;;;1999.90;999.90;;;18.60;42.80;;;;;;4974231;28;20038;-86
2022/03/22 10:42:50;;;;;;;1999.90;999.90;;;18.70;42.90;;;;;;4991987;28;20027;-84
2022/03/22 10:45:18;;;;;;;1999.90;999.90;;;18.80;42.50;;;;;;4973421;28;20050;-86
2022/03/22 10:47:45;;;;;;;1999.90;999.90;;;18.60;42.50;;;;;;5003434;28;20225;-83
2022/03/22 10:50:11;;;;;;;1999.90;999.90;;;18.60;42.80;;;;;;4991046;28;20395;-84
2022/03/22 10:52:57;;;;;;;1999.90;999.90;;;18.60;42.80;;;;;;4989544;28;20034;-84
2022/03/22 10:55:24;;;;;;;1999.90;999.90;;;18.60;42.80;;;;;;4991630;28;20022;-84
2022/03/22 10:57:53;;;;;;;1999.90;999.90;;;18.60;42.90;;;;;;5006097;28;20034;-85
2022/03/22 11:00:19;;;;;;;1999.90;999.90;;;18.60;43.00;;;;;;4989178;28;20035;-84
2022/03/22 11:02:52;;;;;;;1999.90;999.90;;;18.80;43.00;;;;;;4989742;28;20034;-85
2022/03/22 11:05:19;;;;;;;1999.90;999.90;;;18.90;42.90;;;;;;4988122;28;20034;-84
2022/03/22 11:07:47;;;;;;;1999.90;999.90;;;18.80;42.90;;;;;;5004312;28;20022;-82
2022/03/22 11:10:15;;;;;;;1999.90;999.90;;;18.80;42.90;;;;;;5004833;28;20030;-83
2022/03/22 11:12:42;;;;;;;1999.90;999.90;;;18.80;43.10;;;;;;4990975;28;20242;-82
2022/03/22 11:15:08;;;;;;;1999.90;999.90;;;18.90;43.00;;;;;;4990226;28;20030;-82
2022/03/22 11:17:35;;;;;;;1999.90;999.90;;;18.90;43.00;;;;;;4990958;28;20034;-82
2022/03/22 11:20:06;;;;;;;1999.90;999.90;;;18.90;43.00;;;;;;4973425;28;20030;-82
2022/03/22 11:22:33;;;;;;;1999.90;999.90;;;19.00;42.90;;;;;;4988504;28;20049;-84
2022/03/22 11:25:12;;;;;;;1999.90;999.90;;;18.90;42.70;;;;;;5005540;28;20046;-82
2022/03/22 11:27:39;;;;;;;1999.90;999.90;;;18.90;43.00;;;;;;4992552;28;20030;-82
2022/03/22 11:30:07;;;;;;;1999.90;999.90;;;19.00;42.90;;;;;;4989920;28;20026;-82
2022/03/22 11:35:18;;;;;;;1999.90;999.90;;;19.40;42.50;;;;;;4997671;28;20035;-84
2022/03/22 11:38:00;;;;;;;1999.90;999.90;;;19.30;42.30;;;;;;5005162;28;20030;-80
2022/03/22 11:43:12;;;;;;;1999.90;999.90;;;19.40;42.40;;;;;;4991009;28;20720;-77
2022/03/22 11:45:49;;;;;;;1999.90;999.90;;;19.30;42.00;;;;;;4989316;28;20046;-77
2022/03/22 11:48:16;;;;;;;1999.90;999.90;;;19.40;42.00;;;;;;4990674;28;20399;-78
2022/03/22 11:50:45;;;;;;;1999.90;999.90;;;19.50;42.00;;;;;;4975489;28;20034;-76
2022/03/22 11:53:19;;;;;;;1999.90;999.90;;;19.50;41.60;;;;;;4990619;28;20049;-79
2022/03/22 11:55:49;;;;;;;1999.90;999.90;;;19.50;41.70;;;;;;4973772;28;20022;-77
2022/03/22 11:58:15;;;;;;;1999.90;999.90;;;19.40;41.80;;;;;;4974187;28;20045;-77
2022/03/22 12:00:45;;;;;;;1999.90;999.90;;;19.50;41.90;;;;;;4990019;28;20403;-77
2022/03/22 12:03:15;;;;;;;1999.90;999.90;;;19.50;41.80;;;;;;4990105;28;20660;-81
2022/03/22 12:05:42;;;;;;;1999.90;999.90;;;19.70;41.90;;;;;;4989485;28;20063;-77
2022/03/22 12:08:09;;;;;;;1999.90;999.90;;;19.90;41.70;;;;;;4990062;28;20027;-77
2022/03/22 12:10:35;;;;;;;1999.90;999.90;;;20.00;41.40;;;;;;4973629;28;20399;-76
2022/03/22 12:13:02;;;;;;;1999.90;999.90;;;20.00;41.40;;;;;;4995661;28;20045;-77
2022/03/22 12:15:29;;;;;;;1999.90;999.90;;;20.00;41.10;;;;;;4983138;28;20031;-79
2022/03/22 12:17:56;;;;;;;1999.90;999.90;;;20.00;41.30;;;;;;5004352;28;20379;-77
2022/03/22 12:20:23;;;;;;;1999.90;999.90;;;19.90;41.30;;;;;;4989612;28;20069;-79
2022/03/22 12:22:51;;;;;;;1999.90;999.90;;;19.80;41.10;;;;;;4990097;28;20506;-78
2022/03/22 12:25:20;;;;;;;1999.90;999.90;;;19.70;41.10;;;;;;4973799;28;20050;-76
2022/03/22 12:27:53;;;;;;;1999.90;999.90;;;19.70;41.00;;;;;;5002939;28;20049;-77
2022/03/22 12:30:20;;;;;;;1999.90;999.90;;;19.80;41.20;;;;;;4989860;28;20141;-78